createdAt,value
2019-01-27T00:00:21.702Z,982.35
2019-01-27T00:01:21.648Z,982.36
2019-01-27T00:02:21.591Z,982.32
2019-01-27T00:03:21.564Z,982.24
2019-01-27T00:04:21.481Z,982.23
2019-01-27T00:05:21.430Z,982.21
2019-01-27T00:06:21.372Z,982.20
2019-01-27T00:07:21.311Z,982.19
2019-01-27T00:08:21.276Z,982.21
2019-01-27T00:09:21.223Z,982.20
2019-01-27T00:10:21.150Z,982.16
2019-01-27T00:11:21.084Z,982.10
2019-01-27T00:12:21.034Z,982.11
2019-01-27T00:13:20.999Z,982.07
2019-01-27T00:14:20.920Z,982.06
2019-01-27T00:15:20.860Z,982.00
2019-01-27T00:16:20.808Z,981.96
2019-01-27T00:17:20.744Z,981.90
2019-01-27T00:18:20.722Z,981.91
2019-01-27T00:19:20.637Z,981.95
2019-01-27T00:20:20.606Z,981.89
2019-01-27T00:21:20.540Z,981.92
2019-01-27T00:22:20.472Z,981.87
2019-01-27T00:23:20.414Z,981.85
2019-01-27T00:24:20.356Z,981.83
2019-01-27T00:25:20.329Z,981.81
2019-01-27T00:26:20.243Z,981.83
2019-01-27T00:27:20.190Z,981.79
2019-01-27T00:28:20.133Z,981.83
2019-01-27T00:29:20.076Z,981.81
2019-01-27T00:30:20.045Z,981.74
2019-01-27T00:31:19.961Z,981.71
2019-01-27T00:32:19.912Z,981.67
2019-01-27T00:33:19.853Z,981.69
2019-01-27T00:34:19.820Z,981.68
2019-01-27T00:35:19.736Z,981.64
2019-01-27T00:36:19.679Z,981.64
2019-01-27T00:37:25.394Z,981.57
2019-01-27T00:38:19.570Z,981.58
2019-01-27T00:39:19.538Z,981.48
2019-01-27T00:40:19.461Z,981.44
2019-01-27T00:41:19.402Z,981.47
2019-01-27T00:42:19.350Z,981.39
2019-01-27T00:43:19.297Z,981.38
2019-01-27T00:44:19.262Z,981.34
2019-01-27T00:45:19.178Z,981.41
2019-01-27T00:46:19.124Z,981.34
2019-01-27T00:47:19.059Z,981.31
2019-01-27T00:48:19.008Z,981.28
2019-01-27T00:49:18.974Z,981.27
2019-01-27T00:50:18.940Z,981.22
2019-01-27T00:51:18.840Z,981.18
2019-01-27T00:52:18.780Z,981.22
2019-01-27T00:53:18.722Z,981.23
2019-01-27T00:54:18.694Z,981.17
2019-01-27T00:55:18.619Z,981.14
2019-01-27T00:56:18.559Z,981.13
2019-01-27T00:57:18.501Z,981.16
2019-01-27T00:58:18.446Z,981.14
2019-01-27T00:59:18.413Z,981.10
2019-01-27T01:00:18.334Z,981.10
2019-01-27T01:01:18.275Z,981.02
2019-01-27T01:02:18.223Z,981.06
2019-01-27T01:03:18.172Z,980.99
2019-01-27T01:04:18.142Z,981.01
2019-01-27T01:05:18.049Z,980.98
2019-01-27T01:06:18.012Z,980.94
2019-01-27T01:07:17.942Z,980.97
2019-01-27T01:08:17.911Z,980.88
2019-01-27T01:09:17.856Z,980.88
2019-01-27T01:10:17.780Z,980.87
2019-01-27T01:11:17.745Z,980.82
2019-01-27T01:12:17.662Z,980.82
2019-01-27T01:13:17.611Z,980.76
2019-01-27T01:14:17.574Z,980.75
2019-01-27T01:15:17.491Z,980.76
2019-01-27T01:16:17.460Z,980.70
2019-01-27T01:17:17.382Z,980.68
2019-01-27T01:18:17.331Z,980.64
2019-01-27T01:19:17.265Z,980.65
2019-01-27T01:20:17.243Z,980.60
2019-01-27T01:21:17.156Z,980.63
2019-01-27T01:22:17.100Z,980.60
2019-01-27T01:23:17.048Z,980.64
2019-01-27T01:24:16.984Z,980.68
2019-01-27T01:25:16.958Z,980.64
2019-01-27T01:26:16.887Z,980.56
2019-01-27T01:27:16.821Z,980.50
2019-01-27T01:28:16.763Z,980.48
2019-01-27T01:29:16.707Z,980.48
2019-01-27T01:30:16.672Z,980.47
2019-01-27T01:31:16.597Z,980.48
2019-01-27T01:32:16.542Z,980.48
2019-01-27T01:33:16.487Z,980.43
2019-01-27T01:34:16.432Z,980.36
2019-01-27T01:35:16.395Z,980.38
2019-01-27T01:36:16.322Z,980.35
2019-01-27T01:37:16.264Z,980.35
2019-01-27T01:38:16.206Z,980.38
2019-01-27T01:39:16.145Z,980.33
2019-01-27T01:40:16.126Z,980.27
2019-01-27T01:41:16.048Z,980.26
2019-01-27T01:42:15.980Z,980.25
2019-01-27T01:43:15.923Z,980.28
2019-01-27T01:44:15.864Z,980.21
2019-01-27T01:45:15.846Z,980.20
2019-01-27T01:46:15.759Z,980.18
2019-01-27T01:47:15.698Z,980.10
2019-01-27T01:48:15.646Z,980.10
2019-01-27T01:49:15.584Z,980.11
2019-01-27T01:50:15.555Z,980.09
2019-01-27T01:51:15.472Z,980.15
2019-01-27T01:52:15.418Z,980.18
2019-01-27T01:53:15.361Z,980.16
2019-01-27T01:54:15.307Z,980.14
2019-01-27T01:55:15.273Z,980.11
2019-01-27T01:56:15.191Z,980.02
2019-01-27T01:57:15.136Z,980.00
2019-01-27T01:58:15.095Z,979.98
2019-01-27T01:59:15.025Z,979.92
2019-01-27T02:00:14.998Z,979.93
2019-01-27T02:01:14.910Z,979.91
2019-01-27T02:02:14.854Z,979.91
2019-01-27T02:03:14.800Z,979.88
2019-01-27T02:04:14.747Z,979.85
2019-01-27T02:05:14.728Z,979.85
2019-01-27T02:06:14.633Z,979.81
2019-01-27T02:07:14.574Z,979.82
2019-01-27T02:08:14.525Z,979.83
2019-01-27T02:09:14.471Z,979.85
2019-01-27T02:10:14.412Z,979.88
2019-01-27T02:11:14.407Z,979.79
2019-01-27T02:12:14.296Z,979.75
2019-01-27T02:13:14.235Z,979.72
2019-01-27T02:14:14.189Z,979.76
2019-01-27T02:15:14.130Z,979.71
2019-01-27T02:16:14.279Z,979.70
2019-01-27T02:17:14.030Z,979.67
2019-01-27T02:18:13.964Z,979.64
2019-01-27T02:19:13.905Z,979.61
2019-01-27T02:20:13.849Z,979.58
2019-01-27T02:21:13.813Z,979.59
2019-01-27T02:22:13.742Z,979.59
2019-01-27T02:23:13.679Z,979.50
2019-01-27T02:24:13.623Z,979.49
2019-01-27T02:25:13.573Z,979.44
2019-01-27T02:26:13.536Z,979.49
2019-01-27T02:27:13.463Z,979.36
2019-01-27T02:28:13.399Z,979.37
2019-01-27T02:29:13.359Z,979.37
2019-01-27T02:30:13.294Z,979.43
2019-01-27T02:31:13.257Z,979.37
2019-01-27T02:32:13.176Z,979.35
2019-01-27T02:33:13.125Z,979.35
2019-01-27T02:34:13.070Z,979.34
2019-01-27T02:35:13.007Z,979.28
2019-01-27T02:36:13.000Z,979.21
2019-01-27T02:37:12.891Z,979.24
2019-01-27T02:38:12.842Z,979.22
2019-01-27T02:39:12.785Z,979.14
2019-01-27T02:40:12.729Z,979.12
2019-01-27T02:41:12.699Z,979.11
2019-01-27T02:42:12.616Z,979.14
2019-01-27T02:43:12.565Z,979.06
2019-01-27T02:44:12.505Z,979.05
2019-01-27T02:45:12.445Z,979.04
2019-01-27T02:46:12.415Z,978.99
2019-01-27T02:47:12.342Z,978.93
2019-01-27T02:48:12.286Z,978.96
2019-01-27T02:49:12.226Z,978.89
2019-01-27T02:50:12.164Z,978.78
2019-01-27T02:51:12.132Z,978.80
2019-01-27T02:52:12.052Z,978.79
2019-01-27T02:53:12.000Z,978.81
2019-01-27T02:54:11.945Z,978.84
2019-01-27T02:55:11.887Z,978.73
2019-01-27T02:56:11.857Z,978.76
2019-01-27T02:57:11.768Z,978.69
2019-01-27T02:58:11.717Z,978.65
2019-01-27T02:59:11.664Z,978.60
2019-01-27T03:00:11.609Z,978.56
2019-01-27T03:01:11.581Z,978.55
2019-01-27T03:02:11.508Z,978.52
2019-01-27T03:03:11.440Z,978.50
2019-01-27T03:04:11.381Z,978.47
2019-01-27T03:05:11.326Z,978.47
2019-01-27T03:06:11.300Z,978.39
2019-01-27T03:07:11.214Z,978.45
2019-01-27T03:08:11.168Z,978.43
2019-01-27T03:09:11.103Z,978.41
2019-01-27T03:10:11.063Z,978.43
2019-01-27T03:11:11.024Z,978.46
2019-01-27T03:12:10.933Z,978.45
2019-01-27T03:13:10.881Z,978.38
2019-01-27T03:14:10.826Z,978.35
2019-01-27T03:15:10.775Z,978.34
2019-01-27T03:16:10.736Z,978.38
2019-01-27T03:17:10.653Z,978.41
2019-01-27T03:18:10.597Z,978.40
2019-01-27T03:19:10.540Z,978.33
2019-01-27T03:20:10.510Z,978.35
2019-01-27T03:21:10.433Z,978.36
2019-01-27T03:22:10.396Z,978.28
2019-01-27T03:23:10.315Z,978.27
2019-01-27T03:24:10.258Z,978.23
2019-01-27T03:25:10.211Z,978.25
2019-01-27T03:26:10.150Z,978.24
2019-01-27T03:27:10.116Z,978.25
2019-01-27T03:28:10.035Z,978.22
2019-01-27T03:29:09.979Z,978.20
2019-01-27T03:30:09.927Z,978.10
2019-01-27T03:31:09.891Z,978.10
2019-01-27T03:32:09.843Z,978.05
2019-01-27T03:33:09.762Z,978.01
2019-01-27T03:34:09.700Z,978.01
2019-01-27T03:35:09.638Z,978.00
2019-01-27T03:36:09.591Z,977.96
2019-01-27T03:37:09.553Z,978.01
2019-01-27T03:38:09.475Z,978.02
2019-01-27T03:39:09.419Z,977.94
2019-01-27T03:40:09.363Z,977.95
2019-01-27T03:41:09.317Z,977.94
2019-01-27T03:42:09.275Z,977.88
2019-01-27T03:43:09.199Z,977.89
2019-01-27T03:44:09.141Z,977.88
2019-01-27T03:45:09.086Z,977.85
2019-01-27T03:46:09.040Z,977.81
2019-01-27T03:47:09.001Z,977.81
2019-01-27T03:48:08.922Z,977.81
2019-01-27T03:49:08.903Z,977.82
2019-01-27T03:50:08.826Z,977.84
2019-01-27T03:51:08.750Z,977.78
2019-01-27T03:52:08.734Z,977.78
2019-01-27T03:53:08.636Z,977.74
2019-01-27T03:54:08.578Z,977.70
2019-01-27T03:55:08.528Z,977.70
2019-01-27T03:56:08.473Z,977.68
2019-01-27T03:57:08.436Z,977.67
2019-01-27T03:58:08.352Z,977.65
2019-01-27T03:59:08.299Z,977.74
2019-01-27T04:00:08.241Z,977.69
2019-01-27T04:01:08.185Z,977.70
2019-01-27T04:02:08.189Z,977.69
2019-01-27T04:03:08.073Z,977.74
2019-01-27T04:04:08.020Z,977.67
2019-01-27T04:05:07.965Z,977.62
2019-01-27T04:06:07.906Z,977.59
2019-01-27T04:07:07.853Z,977.56
2019-01-27T04:08:07.814Z,977.50
2019-01-27T04:09:07.733Z,977.59
2019-01-27T04:10:07.682Z,977.60
2019-01-27T04:11:07.633Z,977.53
2019-01-27T04:12:07.570Z,977.53
2019-01-27T04:13:07.541Z,977.50
2019-01-27T04:14:07.451Z,977.42
2019-01-27T04:15:07.401Z,977.45
2019-01-27T04:16:07.351Z,977.38
2019-01-27T04:17:07.290Z,977.40
2019-01-27T04:18:07.257Z,977.38
2019-01-27T04:19:07.178Z,977.39
2019-01-27T04:20:07.118Z,977.35
2019-01-27T04:21:07.069Z,977.26
2019-01-27T04:22:07.003Z,977.28
2019-01-27T04:23:06.976Z,977.31
2019-01-27T04:24:06.902Z,977.28
2019-01-27T04:25:06.839Z,977.29
2019-01-27T04:26:06.784Z,977.30
2019-01-27T04:27:06.729Z,977.27
2019-01-27T04:28:06.694Z,977.29
2019-01-27T04:29:06.615Z,977.23
2019-01-27T04:30:06.563Z,977.14
2019-01-27T04:31:06.507Z,977.12
2019-01-27T04:32:06.449Z,977.14
2019-01-27T04:33:06.418Z,977.10
2019-01-27T04:34:06.334Z,977.05
2019-01-27T04:35:06.279Z,977.03
2019-01-27T04:36:06.224Z,977.05
2019-01-27T04:37:06.166Z,977.05
2019-01-27T04:38:06.132Z,977.02
2019-01-27T04:39:06.056Z,977.03
2019-01-27T04:40:05.995Z,977.06
2019-01-27T04:41:05.941Z,977.06
2019-01-27T04:42:05.886Z,977.06
2019-01-27T04:43:05.860Z,977.00
2019-01-27T04:44:05.778Z,976.97
2019-01-27T04:45:05.719Z,976.96
2019-01-27T04:46:05.660Z,976.88
2019-01-27T04:47:05.615Z,976.87
2019-01-27T04:48:05.575Z,976.88
2019-01-27T04:49:05.508Z,976.87
2019-01-27T04:50:05.436Z,976.83
2019-01-27T04:51:05.382Z,976.83
2019-01-27T04:52:05.326Z,976.63
2019-01-27T04:53:05.301Z,976.65
2019-01-27T04:54:05.242Z,976.70
2019-01-27T04:55:05.155Z,976.62
2019-01-27T04:56:05.113Z,976.57
2019-01-27T04:57:05.049Z,976.53
2019-01-27T04:58:04.998Z,976.51
2019-01-27T04:59:04.976Z,976.56
2019-01-27T05:00:04.877Z,976.58
2019-01-27T05:01:04.817Z,976.59
2019-01-27T05:02:04.766Z,976.57
2019-01-27T05:03:04.729Z,976.55
2019-01-27T05:04:04.679Z,976.56
2019-01-27T05:05:04.596Z,976.59
2019-01-27T05:06:04.541Z,976.53
2019-01-27T05:07:04.500Z,976.50
2019-01-27T05:08:04.434Z,976.50
2019-01-27T05:09:04.401Z,976.42
2019-01-27T05:10:04.316Z,976.38
2019-01-27T05:11:04.275Z,976.37
2019-01-27T05:12:04.204Z,976.36
2019-01-27T05:13:04.149Z,976.34
2019-01-27T05:14:04.124Z,976.36
2019-01-27T05:15:04.040Z,976.36
2019-01-27T05:16:03.992Z,976.37
2019-01-27T05:17:03.929Z,976.36
2019-01-27T05:18:03.872Z,976.32
2019-01-27T05:19:03.839Z,976.32
2019-01-27T05:20:03.767Z,976.34
2019-01-27T05:21:03.697Z,976.32
2019-01-27T05:22:03.649Z,976.27
2019-01-27T05:23:03.587Z,976.25
2019-01-27T05:24:03.564Z,976.23
2019-01-27T05:25:03.476Z,976.19
2019-01-27T05:26:03.423Z,976.20
2019-01-27T05:27:03.372Z,976.18
2019-01-27T05:28:03.307Z,976.15
2019-01-27T05:29:03.292Z,976.10
2019-01-27T05:30:03.195Z,976.10
2019-01-27T05:31:03.139Z,976.06
2019-01-27T05:32:03.083Z,976.02
2019-01-27T05:33:03.026Z,976.07
2019-01-27T05:34:03.004Z,976.06
2019-01-27T05:35:02.927Z,976.06
2019-01-27T05:36:02.862Z,976.05
2019-01-27T05:37:02.844Z,976.07
2019-01-27T05:38:02.747Z,975.98
2019-01-27T05:39:02.721Z,975.98
2019-01-27T05:40:02.638Z,975.93
2019-01-27T05:41:02.589Z,975.92
2019-01-27T05:42:02.525Z,975.90
2019-01-27T05:43:02.468Z,975.93
2019-01-27T05:44:02.435Z,975.97
2019-01-27T05:45:02.361Z,975.93
2019-01-27T05:46:02.307Z,975.89
2019-01-27T05:47:02.246Z,975.91
2019-01-27T05:48:02.193Z,975.91
2019-01-27T05:49:02.155Z,975.88
2019-01-27T05:50:02.072Z,975.85
2019-01-27T05:51:02.020Z,975.83
2019-01-27T05:52:01.961Z,975.84
2019-01-27T05:53:01.912Z,975.84
2019-01-27T05:54:01.883Z,975.89
2019-01-27T05:55:01.799Z,975.82
2019-01-27T05:56:01.743Z,975.81
2019-01-27T05:57:01.695Z,975.82
2019-01-27T05:58:01.630Z,975.80
2019-01-27T05:59:01.600Z,975.74
2019-01-27T06:00:01.517Z,975.75
2019-01-27T06:01:01.468Z,975.71
2019-01-27T06:02:01.401Z,975.73
2019-01-27T06:03:01.353Z,975.76
2019-01-27T06:04:01.316Z,975.75
2019-01-27T06:05:01.237Z,975.69
2019-01-27T06:06:01.182Z,975.71
2019-01-27T06:07:01.125Z,975.67
2019-01-27T06:08:01.070Z,975.67
2019-01-27T06:09:01.038Z,975.63
2019-01-27T06:10:00.950Z,975.68
2019-01-27T06:11:00.901Z,975.64
2019-01-27T06:12:00.854Z,975.67
2019-01-27T06:13:00.792Z,975.68
2019-01-27T06:14:00.768Z,975.60
2019-01-27T06:15:00.689Z,975.55
2019-01-27T06:16:00.618Z,975.51
2019-01-27T06:17:00.589Z,975.53
2019-01-27T06:18:00.510Z,975.56
2019-01-27T06:19:00.484Z,975.52
2019-01-27T06:20:00.424Z,975.45
2019-01-27T06:21:00.345Z,975.44
2019-01-27T06:22:00.296Z,975.40
2019-01-27T06:23:00.232Z,975.40
2019-01-27T06:24:00.175Z,975.41
2019-01-27T06:25:00.268Z,975.37
2019-01-27T06:26:00.058Z,975.41
2019-01-27T06:27:00.004Z,975.37
2019-01-27T06:27:59.942Z,975.37
2019-01-27T06:28:59.890Z,975.36
2019-01-27T06:29:59.859Z,975.35
2019-01-27T06:30:59.781Z,975.36
2019-01-27T06:31:59.730Z,975.35
2019-01-27T06:32:59.664Z,975.38
2019-01-27T06:33:59.608Z,975.39
2019-01-27T06:34:59.590Z,975.38
2019-01-27T06:35:59.504Z,975.38
2019-01-27T06:36:59.443Z,975.39
2019-01-27T06:37:59.391Z,975.36
2019-01-27T06:38:59.332Z,975.34
2019-01-27T06:39:59.303Z,975.35
2019-01-27T06:40:59.233Z,975.28
2019-01-27T06:41:59.162Z,975.26
2019-01-27T06:42:59.106Z,975.29
2019-01-27T06:43:59.056Z,975.36
2019-01-27T06:44:59.024Z,975.34
2019-01-27T06:45:58.945Z,975.24
2019-01-27T06:46:58.882Z,975.26
2019-01-27T06:47:58.829Z,975.26
2019-01-27T06:48:58.778Z,975.24
2019-01-27T06:49:58.748Z,975.26
2019-01-27T06:50:58.671Z,975.29
2019-01-27T06:51:58.601Z,975.30
2019-01-27T06:52:58.550Z,975.35
2019-01-27T06:53:58.487Z,975.34
2019-01-27T06:54:58.468Z,975.31
2019-01-27T06:55:58.377Z,975.29
2019-01-27T06:56:58.336Z,975.25
2019-01-27T06:57:58.289Z,975.19
2019-01-27T06:58:58.252Z,975.15
2019-01-27T06:59:58.180Z,975.15
2019-01-27T07:00:58.122Z,975.16
2019-01-27T07:01:58.050Z,975.17
2019-01-27T07:02:58.002Z,975.13
2019-01-27T07:03:57.927Z,975.09
2019-01-27T07:04:57.898Z,975.13
2019-01-27T07:05:57.825Z,975.09
2019-01-27T07:06:57.770Z,975.02
2019-01-27T07:07:57.701Z,975.03
2019-01-27T07:08:57.645Z,975.04
2019-01-27T07:09:57.619Z,975.04
2019-01-27T07:10:57.543Z,975.00
2019-01-27T07:11:57.481Z,974.98
2019-01-27T07:12:57.428Z,974.97
2019-01-27T07:13:57.370Z,975.01
2019-01-27T07:14:57.340Z,974.98
2019-01-27T07:15:57.258Z,974.97
2019-01-27T07:16:57.209Z,974.86
2019-01-27T07:17:57.146Z,974.92
2019-01-27T07:18:57.149Z,974.92
2019-01-27T07:19:57.067Z,974.90
2019-01-27T07:20:56.977Z,974.82
2019-01-27T07:21:56.917Z,974.86
2019-01-27T07:22:56.864Z,974.84
2019-01-27T07:23:56.806Z,974.74
2019-01-27T07:24:56.826Z,974.77
2019-01-27T07:25:56.693Z,974.82
2019-01-27T07:26:56.641Z,974.84
2019-01-27T07:27:56.581Z,974.76
2019-01-27T07:28:56.528Z,974.71
2019-01-27T07:29:56.470Z,974.69
2019-01-27T07:30:56.441Z,974.73
2019-01-27T07:31:56.358Z,974.68
2019-01-27T07:32:56.315Z,974.64
2019-01-27T07:33:56.246Z,974.66
2019-01-27T07:34:56.191Z,974.61
2019-01-27T07:35:56.156Z,974.63
2019-01-27T07:36:56.074Z,974.68
2019-01-27T07:37:56.021Z,974.65
2019-01-27T07:38:55.966Z,974.68
2019-01-27T07:39:55.925Z,974.75
2019-01-27T07:40:55.877Z,974.75
2019-01-27T07:41:55.800Z,974.82
2019-01-27T07:42:55.744Z,974.78
2019-01-27T07:43:55.695Z,974.68
2019-01-27T07:44:55.633Z,974.65
2019-01-27T07:45:55.612Z,974.66
2019-01-27T07:46:55.516Z,974.64
2019-01-27T07:47:55.462Z,974.60
2019-01-27T07:48:55.404Z,974.62
2019-01-27T07:49:55.351Z,974.68
2019-01-27T07:50:55.327Z,974.63
2019-01-27T07:51:55.236Z,974.63
2019-01-27T07:52:55.186Z,974.62
2019-01-27T07:53:55.139Z,974.67
2019-01-27T07:54:55.065Z,974.62
2019-01-27T07:55:55.040Z,974.64
2019-01-27T07:56:54.958Z,974.63
2019-01-27T07:57:54.914Z,974.66
2019-01-27T07:58:54.847Z,974.67
2019-01-27T07:59:54.803Z,974.62
2019-01-27T08:00:54.756Z,974.55
2019-01-27T08:01:54.681Z,974.60
2019-01-27T08:02:54.623Z,974.54
2019-01-27T08:03:54.570Z,974.61
2019-01-27T08:04:54.507Z,974.60
2019-01-27T08:05:54.476Z,974.52
2019-01-27T08:06:54.404Z,974.55
2019-01-27T08:07:54.358Z,974.52
2019-01-27T08:08:54.282Z,974.54
2019-01-27T08:09:54.229Z,974.51
2019-01-27T08:10:54.202Z,974.59
2019-01-27T08:11:54.117Z,974.57
2019-01-27T08:12:54.072Z,974.60
2019-01-27T08:13:54.006Z,974.63
2019-01-27T08:14:53.950Z,974.54
2019-01-27T08:15:53.921Z,974.47
2019-01-27T08:16:53.836Z,974.49
2019-01-27T08:17:53.783Z,974.50
2019-01-27T08:18:53.749Z,974.46
2019-01-27T08:19:53.673Z,974.46
2019-01-27T08:20:53.654Z,974.51
2019-01-27T08:21:53.558Z,974.54
2019-01-27T08:22:53.504Z,974.50
2019-01-27T08:23:53.446Z,974.49
2019-01-27T08:24:53.389Z,974.49
2019-01-27T08:25:53.328Z,974.49
2019-01-27T08:26:53.300Z,974.52
2019-01-27T08:27:53.221Z,974.52
2019-01-27T08:28:53.171Z,974.51
2019-01-27T08:29:53.111Z,974.50
2019-01-27T08:30:53.055Z,974.47
2019-01-27T08:31:53.025Z,974.44
2019-01-27T08:32:52.999Z,974.42
2019-01-27T08:33:52.885Z,974.38
2019-01-27T08:34:52.835Z,974.40
2019-01-27T08:35:52.809Z,974.44
2019-01-27T08:36:52.742Z,974.41
2019-01-27T08:37:52.659Z,974.43
2019-01-27T08:38:52.613Z,974.40
2019-01-27T08:39:52.556Z,974.40
2019-01-27T08:40:52.502Z,974.39
2019-01-27T08:41:52.487Z,974.48
2019-01-27T08:42:52.390Z,974.45
2019-01-27T08:43:52.334Z,974.44
2019-01-27T08:44:52.271Z,974.44
2019-01-27T08:45:52.224Z,974.36
2019-01-27T08:46:52.188Z,974.28
2019-01-27T08:47:52.107Z,974.30
2019-01-27T08:48:52.058Z,974.31
2019-01-27T08:49:52.002Z,974.34
2019-01-27T08:50:51.941Z,974.34
2019-01-27T08:51:51.919Z,974.36
2019-01-27T08:52:51.830Z,974.33
2019-01-27T08:53:51.768Z,974.27
2019-01-27T08:54:51.731Z,974.23
2019-01-27T08:55:51.678Z,974.25
2019-01-27T08:56:51.628Z,974.28
2019-01-27T08:57:51.544Z,974.27
2019-01-27T08:58:51.500Z,974.25
2019-01-27T08:59:51.457Z,974.23
2019-01-27T09:00:51.381Z,974.24
2019-01-27T09:01:51.349Z,974.28
2019-01-27T09:02:51.271Z,974.25
2019-01-27T09:03:51.215Z,974.27
2019-01-27T09:04:51.167Z,974.17
2019-01-27T09:05:51.117Z,974.16
2019-01-27T09:06:51.110Z,974.17
2019-01-27T09:07:50.995Z,974.14
2019-01-27T09:08:50.937Z,974.13
2019-01-27T09:09:50.879Z,974.14
2019-01-27T09:10:50.828Z,974.23
2019-01-27T09:11:50.793Z,974.14
2019-01-27T09:12:50.718Z,974.17
2019-01-27T09:13:50.684Z,974.10
2019-01-27T09:14:50.609Z,974.15
2019-01-27T09:15:50.568Z,974.11
2019-01-27T09:16:50.520Z,974.13
2019-01-27T09:17:50.432Z,974.14
2019-01-27T09:18:50.380Z,974.12
2019-01-27T09:19:50.322Z,974.04
2019-01-27T09:20:50.273Z,974.13
2019-01-27T09:21:50.274Z,974.14
2019-01-27T09:22:50.166Z,974.16
2019-01-27T09:23:50.107Z,974.20
2019-01-27T09:24:50.043Z,974.14
2019-01-27T09:25:49.992Z,974.17
2019-01-27T09:26:49.978Z,974.20
2019-01-27T09:27:49.901Z,974.15
2019-01-27T09:28:49.830Z,974.09
2019-01-27T09:29:49.790Z,974.09
2019-01-27T09:30:49.730Z,974.13
2019-01-27T09:31:49.655Z,974.04
2019-01-27T09:32:49.640Z,974.16
2019-01-27T09:33:49.553Z,974.16
2019-01-27T09:34:49.524Z,974.10
2019-01-27T09:35:49.441Z,974.14
2019-01-27T09:36:49.383Z,974.17
2019-01-27T09:37:49.352Z,974.15
2019-01-27T09:38:49.284Z,974.14
2019-01-27T09:39:49.217Z,974.14
2019-01-27T09:40:49.166Z,974.12
2019-01-27T09:41:49.109Z,974.10
2019-01-27T09:42:49.081Z,974.01
2019-01-27T09:43:48.999Z,974.04
2019-01-27T09:44:48.950Z,974.09
2019-01-27T09:45:57.575Z,974.07
2019-01-27T09:46:48.837Z,974.07
2019-01-27T09:47:48.806Z,974.03
2019-01-27T09:48:48.728Z,974.00
2019-01-27T09:49:48.668Z,973.97
2019-01-27T09:50:48.608Z,974.01
2019-01-27T09:51:48.556Z,973.98
2019-01-27T09:52:48.549Z,973.97
2019-01-27T09:53:48.441Z,973.97
2019-01-27T09:54:48.382Z,973.98
2019-01-27T09:55:48.334Z,974.07
2019-01-27T09:56:48.280Z,974.06
2019-01-27T09:57:48.276Z,974.03
2019-01-27T09:58:48.164Z,974.00
2019-01-27T09:59:48.097Z,974.02
2019-01-27T10:00:48.061Z,973.96
2019-01-27T10:01:48.009Z,973.97
2019-01-27T10:02:47.982Z,974.03
2019-01-27T10:03:47.882Z,974.13
2019-01-27T10:04:47.884Z,974.13
2019-01-27T10:05:47.773Z,974.14
2019-01-27T10:06:47.726Z,974.10
2019-01-27T10:07:47.737Z,974.13
2019-01-27T10:08:47.696Z,974.13
2019-01-27T10:09:47.555Z,974.09
2019-01-27T10:10:47.509Z,974.04
2019-01-27T10:11:47.448Z,974.05
2019-01-27T10:12:47.398Z,974.07
2019-01-27T10:13:47.360Z,974.07
2019-01-27T10:14:47.295Z,974.03
2019-01-27T10:15:47.231Z,973.99
2019-01-27T10:16:47.170Z,974.07
2019-01-27T10:17:47.134Z,974.05
2019-01-27T10:18:47.464Z,974.00
2019-01-27T10:19:47.031Z,973.90
2019-01-27T10:20:46.957Z,973.93
2019-01-27T10:21:46.900Z,973.94
2019-01-27T10:22:46.869Z,973.99
2019-01-27T10:23:46.832Z,973.98
2019-01-27T10:24:46.756Z,974.02
2019-01-27T10:25:46.683Z,973.95
2019-01-27T10:26:46.629Z,973.94
2019-01-27T10:27:46.585Z,973.85
2019-01-27T10:28:46.564Z,973.84
2019-01-27T10:29:46.467Z,973.92
2019-01-27T10:30:46.406Z,973.77
2019-01-27T10:31:46.357Z,973.77
2019-01-27T10:32:46.301Z,973.80
2019-01-27T10:33:46.286Z,973.80
2019-01-27T10:34:46.177Z,973.70
2019-01-27T10:35:46.131Z,973.73
2019-01-27T10:36:46.080Z,973.66
2019-01-27T10:37:46.031Z,973.59
2019-01-27T10:38:45.993Z,973.58
2019-01-27T10:39:45.929Z,973.66
2019-01-27T10:40:45.863Z,973.70
2019-01-27T10:41:45.823Z,973.62
2019-01-27T10:42:45.753Z,973.68
2019-01-27T10:43:45.738Z,973.61
2019-01-27T10:44:45.644Z,973.70
2019-01-27T10:45:45.593Z,973.72
2019-01-27T10:46:45.586Z,973.72
2019-01-27T10:47:46.872Z,973.55
2019-01-27T10:48:45.479Z,973.66
2019-01-27T10:49:45.367Z,973.69
2019-01-27T10:50:45.320Z,973.72
2019-01-27T10:51:45.277Z,973.60
2019-01-27T10:52:45.237Z,973.62
2019-01-27T10:53:45.160Z,973.56
2019-01-27T10:54:45.147Z,973.49
2019-01-27T10:55:45.048Z,973.42
2019-01-27T10:56:44.991Z,973.37
2019-01-27T10:57:44.944Z,973.40
2019-01-27T10:58:44.876Z,973.40
2019-01-27T10:59:44.859Z,973.35
2019-01-27T11:00:44.776Z,973.30
2019-01-27T11:01:44.736Z,973.40
2019-01-27T11:02:44.659Z,973.41
2019-01-27T11:03:44.603Z,973.34
2019-01-27T11:04:44.571Z,973.40
2019-01-27T11:05:44.506Z,973.36
2019-01-27T11:06:44.443Z,973.36
2019-01-27T11:07:44.407Z,973.45
2019-01-27T11:08:44.335Z,973.46
2019-01-27T11:09:44.301Z,973.41
2019-01-27T11:10:44.227Z,973.37
2019-01-27T11:11:44.183Z,973.35
2019-01-27T11:12:44.121Z,973.26
2019-01-27T11:13:44.063Z,973.28
2019-01-27T11:14:44.032Z,973.23
2019-01-27T11:15:43.961Z,973.31
2019-01-27T11:16:43.907Z,973.23
2019-01-27T11:17:43.850Z,973.33
2019-01-27T11:18:43.791Z,973.28
2019-01-27T11:19:43.777Z,973.26
2019-01-27T11:20:43.691Z,973.26
2019-01-27T11:21:43.631Z,973.20
2019-01-27T11:22:43.753Z,973.17
2019-01-27T11:23:43.529Z,973.15
2019-01-27T11:24:43.484Z,973.11
2019-01-27T11:25:43.416Z,973.08
2019-01-27T11:26:43.592Z,973.10
2019-01-27T11:27:43.324Z,973.02
2019-01-27T11:28:43.244Z,973.04
2019-01-27T11:29:43.211Z,973.04
2019-01-27T11:30:43.149Z,973.07
2019-01-27T11:31:43.114Z,973.06
2019-01-27T11:32:43.025Z,973.05
2019-01-27T11:33:42.973Z,973.04
2019-01-27T11:34:42.934Z,972.99
2019-01-27T11:35:42.858Z,973.02
2019-01-27T11:36:42.847Z,973.03
2019-01-27T11:37:42.761Z,973.00
2019-01-27T11:38:42.719Z,973.05
2019-01-27T11:39:42.680Z,972.99
2019-01-27T11:40:42.592Z,973.04
2019-01-27T11:41:42.547Z,972.98
2019-01-27T11:42:42.488Z,973.01
2019-01-27T11:43:42.435Z,973.07
2019-01-27T11:44:42.411Z,972.97
2019-01-27T11:45:42.312Z,973.02
2019-01-27T11:46:42.283Z,972.92
2019-01-27T11:47:42.204Z,972.97
2019-01-27T11:48:42.159Z,972.94
2019-01-27T11:49:42.166Z,972.99
2019-01-27T11:50:42.049Z,972.92
2019-01-27T11:51:41.986Z,972.90
2019-01-27T11:52:41.936Z,972.89
2019-01-27T11:53:41.915Z,972.84
2019-01-27T11:54:41.846Z,972.85
2019-01-27T11:55:41.794Z,972.85
2019-01-27T11:56:41.716Z,972.82
2019-01-27T11:57:41.655Z,972.83
2019-01-27T11:58:41.604Z,972.85
2019-01-27T11:59:41.565Z,972.77
2019-01-27T12:00:41.521Z,972.74
2019-01-27T12:01:41.440Z,972.76
2019-01-27T12:02:46.507Z,972.73
2019-01-27T12:03:41.329Z,972.72
2019-01-27T12:04:41.268Z,972.73
2019-01-27T12:05:41.254Z,972.75
2019-01-27T12:06:41.166Z,972.72
2019-01-27T12:07:41.122Z,972.72
2019-01-27T12:08:41.091Z,972.72
2019-01-27T12:09:40.994Z,972.71
2019-01-27T12:10:40.968Z,972.74
2019-01-27T12:11:40.884Z,972.69
2019-01-27T12:12:40.839Z,972.72
2019-01-27T12:13:40.781Z,972.70
2019-01-27T12:14:40.733Z,972.70
2019-01-27T12:15:40.746Z,972.68
2019-01-27T12:16:40.619Z,972.67
2019-01-27T12:17:40.564Z,972.70
2019-01-27T12:18:40.504Z,972.70
2019-01-27T12:19:40.484Z,972.62
2019-01-27T12:20:40.422Z,972.67
2019-01-27T12:21:40.365Z,972.61
2019-01-27T12:22:40.302Z,972.58
2019-01-27T12:23:40.232Z,972.57
2019-01-27T12:24:40.178Z,972.55
2019-01-27T12:25:40.190Z,972.59
2019-01-27T12:26:40.076Z,972.52
2019-01-27T12:27:40.016Z,972.54